createdAt,value
2023-04-18T00:01:45.652Z,5.30
2023-04-18T00:04:14.144Z,4.93
2023-04-18T00:06:41.226Z,5.50
2023-04-18T00:09:07.988Z,5.10
2023-04-18T00:11:35.022Z,5.03
2023-04-18T00:14:03.316Z,5.25
2023-04-18T00:16:30.552Z,5.20
2023-04-18T00:18:57.522Z,5.60
2023-04-18T00:21:25.561Z,5.00
2023-04-18T00:23:52.463Z,5.22
2023-04-18T00:26:19.303Z,5.28
2023-04-18T00:28:46.002Z,5.47
2023-04-18T00:31:12.712Z,5.75
2023-04-18T00:33:39.456Z,5.05
2023-04-18T00:36:06.364Z,5.22
2023-04-18T00:38:33.017Z,4.93
2023-04-18T00:40:59.792Z,5.28
2023-04-18T00:43:26.882Z,4.97
2023-04-18T00:45:53.983Z,5.13
2023-04-18T00:48:20.993Z,5.07
2023-04-18T00:50:47.781Z,5.15
2023-04-18T00:53:15.820Z,4.68
2023-04-18T00:55:42.565Z,5.78
2023-04-18T00:58:09.660Z,4.90
2023-04-18T01:00:36.923Z,4.85
2023-04-18T01:03:03.914Z,4.28
2023-04-18T01:05:30.846Z,4.88
2023-04-18T01:08:01.051Z,5.13
2023-04-18T01:10:28.914Z,4.63
2023-04-18T01:13:16.865Z,5.47
2023-04-18T01:15:45.291Z,4.53
2023-04-18T01:18:13.311Z,4.53
2023-04-18T01:20:42.772Z,4.53
2023-04-18T01:23:12.384Z,4.40
2023-04-18T01:25:39.319Z,4.63
2023-04-18T01:28:06.773Z,4.50
2023-04-18T01:30:34.380Z,4.43
2023-04-18T01:33:02.809Z,4.38
2023-04-18T01:35:29.778Z,4.65
2023-04-18T01:37:57.264Z,4.40
2023-04-18T01:40:24.652Z,4.00
2023-04-18T01:42:51.825Z,4.63
2023-04-18T01:45:20.012Z,4.45
2023-04-18T01:47:47.193Z,4.32
2023-04-18T01:50:14.603Z,4.35
2023-04-18T01:52:41.384Z,4.05
2023-04-18T01:55:08.481Z,4.18
2023-04-18T01:57:38.270Z,4.40
2023-04-18T02:00:06.514Z,4.10
2023-04-18T02:02:33.429Z,4.35
2023-04-18T02:05:00.344Z,4.15
2023-04-18T02:07:27.132Z,4.18
2023-04-18T02:09:53.834Z,4.43
2023-04-18T02:12:21.232Z,4.55
2023-04-18T02:14:52.360Z,4.47
2023-04-18T02:17:21.510Z,4.30
2023-04-18T02:19:48.322Z,4.25
2023-04-18T02:22:15.026Z,4.10
2023-04-18T02:24:41.757Z,4.65
2023-04-18T02:27:08.678Z,4.47
2023-04-18T02:29:35.413Z,4.53
2023-04-18T02:32:02.163Z,4.30
2023-04-18T02:34:28.934Z,4.20
2023-04-18T02:36:55.705Z,4.10
2023-04-18T02:39:22.371Z,3.90
2023-04-18T02:41:49.042Z,3.97
2023-04-18T02:44:17.099Z,4.35
2023-04-18T02:46:43.799Z,4.55
2023-04-18T02:49:10.576Z,4.50
2023-04-18T02:51:37.320Z,4.55
2023-04-18T02:54:04.066Z,4.47
2023-04-18T02:56:30.789Z,4.70
2023-04-18T02:58:57.473Z,4.50
2023-04-18T03:01:24.234Z,4.03
2023-04-18T03:03:51.122Z,4.93
2023-04-18T03:06:17.953Z,4.20
2023-04-18T03:08:44.723Z,4.22
2023-04-18T03:11:11.574Z,4.35
2023-04-18T03:13:38.288Z,4.20
2023-04-18T03:16:05.323Z,4.32
2023-04-18T03:18:32.110Z,4.55
2023-04-18T03:20:58.751Z,4.20
2023-04-18T03:23:25.423Z,4.93
2023-04-18T03:25:52.325Z,4.50
2023-04-18T03:28:19.036Z,4.32
2023-04-18T03:30:45.855Z,4.45
2023-04-18T03:33:14.451Z,4.63
2023-04-18T03:35:41.167Z,4.35
2023-04-18T03:38:07.902Z,4.50
2023-04-18T03:40:34.887Z,4.22
2023-04-18T03:43:01.555Z,4.90
2023-04-18T03:45:28.268Z,4.85
2023-04-18T03:47:55.296Z,4.75
2023-04-18T03:50:22.170Z,4.70
2023-04-18T03:52:48.824Z,4.30
2023-04-18T03:55:15.650Z,5.03
2023-04-18T03:57:42.332Z,4.53
2023-04-18T04:00:10.342Z,4.68
2023-04-18T04:02:37.274Z,4.32
2023-04-18T04:05:05.083Z,4.55
2023-04-18T04:07:32.458Z,5.03
2023-04-18T04:09:59.174Z,4.90
2023-04-18T04:12:26.013Z,4.40
2023-04-18T04:14:52.825Z,4.60
2023-04-18T04:17:19.569Z,4.90
2023-04-18T04:19:46.270Z,4.82
2023-04-18T04:22:12.942Z,4.43
2023-04-18T04:24:40.495Z,4.45
2023-04-18T04:27:08.030Z,4.78
2023-04-18T04:29:35.353Z,4.65
2023-04-18T04:32:02.225Z,5.68
2023-04-18T04:34:28.968Z,4.88
2023-04-18T04:36:55.678Z,4.38
2023-04-18T04:39:22.406Z,4.93
2023-04-18T04:41:49.429Z,4.70
2023-04-18T04:44:17.704Z,4.53
2023-04-18T04:46:44.913Z,5.28
2023-04-18T04:49:11.941Z,5.00
2023-04-18T04:51:39.857Z,4.60
2023-04-18T04:54:06.839Z,4.97
2023-04-18T04:56:33.710Z,5.10
2023-04-18T04:59:00.933Z,5.50
2023-04-18T05:01:27.813Z,5.18
2023-04-18T05:03:54.824Z,5.35
2023-04-18T05:06:22.758Z,4.82
2023-04-18T05:08:52.539Z,5.72
2023-04-18T05:11:19.234Z,5.63
2023-04-18T05:13:45.950Z,4.97
2023-04-18T05:16:12.748Z,4.68
2023-04-18T05:18:41.244Z,5.10
2023-04-18T05:21:08.117Z,5.05
2023-04-18T05:23:36.975Z,4.95
2023-04-18T05:26:06.870Z,5.20
2023-04-18T05:28:33.754Z,5.68
2023-04-18T05:31:03.743Z,5.30
2023-04-18T05:33:31.443Z,5.15
2023-04-18T05:35:58.554Z,5.88
2023-04-18T05:38:25.502Z,5.03
2023-04-18T05:40:52.404Z,4.95
2023-04-18T05:43:19.846Z,4.68
2023-04-18T05:45:46.955Z,5.30
2023-04-18T05:48:14.124Z,4.47
2023-04-18T05:50:40.888Z,5.18
2023-04-18T05:53:07.564Z,5.78
2023-04-18T05:55:34.669Z,4.45
2023-04-18T05:58:01.429Z,5.57
2023-04-18T06:00:28.519Z,4.60
2023-04-18T06:02:55.403Z,5.07
2023-04-18T06:05:22.733Z,5.63
2023-04-18T06:07:49.728Z,5.05
2023-04-18T06:10:17.166Z,5.25
2023-04-18T06:12:43.945Z,5.47
2023-04-18T06:15:11.283Z,5.05
2023-04-18T06:17:38.137Z,5.03
2023-04-18T06:20:06.209Z,4.85
2023-04-18T06:22:34.074Z,5.03
2023-04-18T06:25:00.904Z,5.72
2023-04-18T06:27:31.684Z,5.05
2023-04-18T06:29:58.899Z,5.53
2023-04-18T06:32:26.082Z,4.97
2023-04-18T06:34:53.161Z,4.90
2023-04-18T06:37:20.463Z,5.63
2023-04-18T06:39:47.588Z,4.82
2023-04-18T06:42:14.304Z,5.28
2023-04-18T06:44:43.071Z,5.18
2023-04-18T06:47:10.816Z,5.07
2023-04-18T06:49:37.629Z,4.68
2023-04-18T06:52:04.399Z,5.20
2023-04-18T06:54:31.101Z,4.80
2023-04-18T06:56:57.814Z,4.88
2023-04-18T06:59:24.620Z,5.30
2023-04-18T07:01:51.700Z,4.40
2023-04-18T07:04:18.684Z,4.30
2023-04-18T07:06:45.809Z,4.28
2023-04-18T07:09:12.658Z,4.90
2023-04-18T07:11:40.664Z,4.88
2023-04-18T07:14:07.427Z,4.70
2023-04-18T07:16:34.766Z,5.10
2023-04-18T07:19:01.547Z,4.47
2023-04-18T07:21:28.313Z,4.80
2023-04-18T07:23:55.306Z,4.78
2023-04-18T07:26:22.164Z,4.68
2023-04-18T07:28:49.351Z,4.60
2023-04-18T07:31:16.562Z,4.30
2023-04-18T07:33:43.685Z,4.50
2023-04-18T07:36:10.800Z,4.80
2023-04-18T07:38:37.717Z,4.40
2023-04-18T07:41:04.806Z,4.35
2023-04-18T07:43:31.685Z,4.38
2023-04-18T07:45:58.602Z,4.65
2023-04-18T07:48:25.476Z,4.32
2023-04-18T07:50:52.468Z,4.40
2023-04-18T07:53:19.467Z,4.65
2023-04-18T07:55:46.701Z,4.05
2023-04-18T07:58:14.100Z,4.43
2023-04-18T08:00:43.762Z,3.92
2023-04-18T08:03:12.501Z,4.88
2023-04-18T08:05:40.534Z,4.43
2023-04-18T08:08:08.680Z,5.00
2023-04-18T08:10:36.236Z,4.25
2023-04-18T08:13:03.564Z,4.05
2023-04-18T08:15:32.348Z,3.78
2023-04-18T08:18:00.458Z,3.70
2023-04-18T08:20:27.698Z,3.70
2023-04-18T08:23:05.589Z,3.78
2023-04-18T08:25:36.240Z,3.92
2023-04-18T08:28:04.191Z,3.67
2023-04-18T08:30:31.720Z,3.58
2023-04-18T08:33:00.474Z,3.83
2023-04-18T08:35:27.278Z,3.92
2023-04-18T08:37:53.985Z,3.85
2023-04-18T08:40:21.060Z,3.40
2023-04-18T08:42:49.227Z,3.58
2023-04-18T08:45:16.179Z,3.83
2023-04-18T08:47:43.318Z,3.47
2023-04-18T08:50:10.615Z,3.40
2023-04-18T08:52:39.850Z,3.40
2023-04-18T08:55:07.373Z,3.30
2023-04-18T08:57:35.789Z,3.67
2023-04-18T09:00:05.685Z,3.35
2023-04-18T09:02:43.823Z,3.22
2023-04-18T09:05:16.578Z,3.20
2023-04-18T09:07:43.404Z,3.30
2023-04-18T09:10:11.188Z,3.60
2023-04-18T09:12:46.263Z,2.92
2023-04-18T09:15:15.548Z,3.25
2023-04-18T09:17:52.393Z,2.95
2023-04-18T09:20:41.287Z,3.17
2023-04-18T09:23:16.247Z,2.90
2023-04-18T09:25:46.734Z,2.58
2023-04-18T09:28:27.172Z,3.05
2023-04-18T09:30:54.935Z,2.60
2023-04-18T09:33:32.625Z,2.67
2023-04-18T09:36:21.329Z,3.10
2023-04-18T09:38:49.983Z,2.70
2023-04-18T09:41:20.082Z,2.47
2023-04-18T09:43:48.576Z,2.63
2023-04-18T09:46:17.912Z,2.30
2023-04-18T09:48:44.725Z,2.50
2023-04-18T09:51:18.690Z,2.65
2023-04-18T09:53:47.381Z,2.70
2023-04-18T09:56:26.113Z,2.60
2023-04-18T09:58:59.374Z,2.40
2023-04-18T10:01:29.779Z,2.33
2023-04-18T10:03:57.725Z,2.50
2023-04-18T10:06:27.590Z,2.50
2023-04-18T10:08:55.075Z,2.45
2023-04-18T10:11:23.698Z,2.38
2023-04-18T10:13:54.120Z,2.65
2023-04-18T10:16:21.377Z,2.67
2023-04-18T10:18:50.763Z,2.40
2023-04-18T10:21:17.477Z,2.55
2023-04-18T10:23:45.870Z,2.28
2023-04-18T10:26:12.681Z,2.15
2023-04-18T10:28:58.955Z,2.40
2023-04-18T10:31:27.454Z,2.20
2023-04-18T10:36:28.748Z,2.10
2023-04-18T10:39:04.009Z,2.28
2023-04-18T10:41:34.180Z,2.10
2023-04-18T10:44:09.734Z,2.20
2023-04-18T10:46:41.159Z,2.15
2023-04-18T10:49:20.625Z,2.22
2023-04-18T10:51:49.473Z,2.10
2023-04-18T10:54:35.684Z,2.17
2023-04-18T10:57:04.092Z,1.70
2023-04-18T10:59:32.288Z,1.80
2023-04-18T11:02:30.263Z,2.00
2023-04-18T11:05:02.143Z,1.80
2023-04-18T11:10:24.577Z,2.10
2023-04-18T11:12:52.240Z,1.67
2023-04-18T11:15:23.803Z,2.15
2023-04-18T11:20:29.131Z,1.60
2023-04-18T11:22:57.959Z,2.00
2023-04-18T11:25:31.987Z,1.83
2023-04-18T11:28:00.360Z,2.08
2023-04-18T11:30:27.633Z,2.17
2023-04-18T11:32:55.984Z,2.08
2023-04-18T11:35:22.855Z,1.85
2023-04-18T11:37:51.418Z,2.00
2023-04-18T11:40:18.346Z,1.60
2023-04-18T11:42:45.052Z,1.77
2023-04-18T11:45:14.099Z,1.73
2023-04-18T11:47:42.885Z,1.90
2023-04-18T11:50:11.700Z,2.30
2023-04-18T11:52:41.146Z,2.25
2023-04-18T11:55:17.894Z,2.08
2023-04-18T11:57:58.534Z,1.83
2023-04-18T12:00:32.560Z,2.13
2023-04-18T12:03:01.805Z,2.00
2023-04-18T12:05:38.504Z,2.15
2023-04-18T12:08:11.537Z,2.30
2023-04-18T12:10:49.077Z,2.25
2023-04-18T12:13:16.047Z,2.40
2023-04-18T12:15:44.892Z,2.20
2023-04-18T12:18:15.288Z,2.05
2023-04-18T12:20:50.598Z,2.05
2023-04-18T12:23:39.821Z,2.50
2023-04-18T12:26:08.356Z,2.30
2023-04-18T12:28:35.617Z,2.08
2023-04-18T12:31:02.921Z,2.70
2023-04-18T12:33:30.461Z,2.70
2023-04-18T12:35:57.396Z,2.58
2023-04-18T12:38:24.242Z,2.42
2023-04-18T12:40:52.076Z,2.60
2023-04-18T12:43:19.619Z,2.30
2023-04-18T12:45:47.194Z,2.50
2023-04-18T12:48:14.179Z,2.60
2023-04-18T12:50:41.131Z,2.53
2023-04-18T12:53:08.112Z,2.60
2023-04-18T12:55:34.876Z,2.75
2023-04-18T12:58:01.613Z,2.63
2023-04-18T13:00:31.208Z,2.67
2023-04-18T13:02:58.862Z,2.55
2023-04-18T13:05:29.848Z,2.42
2023-04-18T13:10:27.254Z,2.67
2023-04-18T13:12:53.990Z,2.50
2023-04-18T13:15:23.980Z,2.72
2023-04-18T13:17:50.801Z,3.17
2023-04-18T13:20:19.395Z,2.83
2023-04-18T13:22:46.149Z,2.65
2023-04-18T13:25:12.885Z,2.95
2023-04-18T13:27:41.979Z,3.03
2023-04-18T13:30:10.836Z,2.60
2023-04-18T13:32:39.097Z,2.88
2023-04-18T13:35:08.794Z,3.60
2023-04-18T13:37:35.738Z,2.90
2023-04-18T13:40:05.503Z,2.60
2023-04-18T13:42:36.912Z,3.13
2023-04-18T13:45:04.037Z,3.15
2023-04-18T13:47:30.870Z,3.08
2023-04-18T13:49:58.027Z,2.90
2023-04-18T13:52:25.848Z,3.05
2023-04-18T13:54:52.792Z,3.67
2023-04-18T13:57:19.494Z,3.00
2023-04-18T13:59:46.826Z,3.40
2023-04-18T14:02:13.689Z,2.90
2023-04-18T14:04:40.991Z,3.22
2023-04-18T14:07:08.052Z,3.20
2023-04-18T14:09:34.945Z,3.55
2023-04-18T14:12:02.172Z,3.40
2023-04-18T14:14:29.133Z,3.78
2023-04-18T14:16:55.933Z,3.40
2023-04-18T14:19:22.889Z,3.20
2023-04-18T14:21:49.636Z,2.90
2023-04-18T14:24:16.533Z,3.25
2023-04-18T14:26:43.227Z,3.33
2023-04-18T14:29:09.939Z,3.15
2023-04-18T14:31:36.855Z,3.35
2023-04-18T14:34:03.514Z,3.35
2023-04-18T14:36:30.956Z,3.30
2023-04-18T14:38:57.784Z,3.63
2023-04-18T14:41:24.506Z,3.17
2023-04-18T14:43:51.465Z,3.60
2023-04-18T14:46:18.135Z,3.42
2023-04-18T14:48:46.842Z,3.60
2023-04-18T14:51:15.649Z,3.60
2023-04-18T14:53:42.535Z,3.55
2023-04-18T14:56:09.326Z,3.58
2023-04-18T14:58:36.248Z,3.42
2023-04-18T15:01:04.197Z,3.50
2023-04-18T15:03:31.186Z,3.38
2023-04-18T15:05:58.127Z,3.55
2023-04-18T15:08:24.862Z,3.65
2023-04-18T15:10:51.511Z,3.78
2023-04-18T15:13:19.509Z,3.60
2023-04-18T15:15:56.642Z,3.40
2023-04-18T15:18:23.587Z,3.60
2023-04-18T15:20:50.665Z,3.60
2023-04-18T15:23:17.426Z,3.20
2023-04-18T15:25:45.209Z,3.50
2023-04-18T15:28:14.890Z,3.35
2023-04-18T15:30:41.698Z,3.67
2023-04-18T15:33:08.645Z,3.50
2023-04-18T15:35:35.900Z,3.55
2023-04-18T15:38:02.837Z,3.65
2023-04-18T15:40:29.720Z,3.70
2023-04-18T15:42:57.760Z,3.55
2023-04-18T15:45:24.528Z,3.80
2023-04-18T15:47:51.687Z,3.80
2023-04-18T15:50:18.533Z,3.60
2023-04-18T15:52:45.383Z,3.92
2023-04-18T15:55:13.200Z,3.80
2023-04-18T15:57:41.570Z,3.97
2023-04-18T16:00:17.732Z,4.05
2023-04-18T16:02:45.460Z,3.65
2023-04-18T16:05:13.637Z,3.85
2023-04-18T16:07:41.292Z,3.22
2023-04-18T16:10:10.243Z,3.58
2023-04-18T16:12:38.033Z,3.75
2023-04-18T16:15:09.475Z,3.50
2023-04-18T16:17:37.354Z,3.55
2023-04-18T16:20:05.991Z,3.17
2023-04-18T16:22:32.876Z,3.45
2023-04-18T16:24:59.705Z,3.90
2023-04-18T16:27:26.428Z,3.80
2023-04-18T16:29:53.812Z,3.65
2023-04-18T16:32:21.925Z,4.03
2023-04-18T16:34:48.852Z,3.97
2023-04-18T16:37:16.040Z,3.50
2023-04-18T16:39:42.756Z,3.55
2023-04-18T16:42:09.546Z,3.22
2023-04-18T16:44:36.279Z,3.45
2023-04-18T16:47:04.997Z,3.65
2023-04-18T16:49:31.852Z,3.72
2023-04-18T16:51:58.676Z,3.50
2023-04-18T16:54:25.356Z,3.33
2023-04-18T16:56:51.963Z,3.80
2023-04-18T16:59:18.659Z,3.30
2023-04-18T17:01:45.323Z,4.18
2023-04-18T17:04:12.344Z,3.60
2023-04-18T17:06:39.375Z,3.25
2023-04-18T17:09:06.418Z,3.60
2023-04-18T17:11:38.867Z,3.50
2023-04-18T17:14:07.717Z,3.80
2023-04-18T17:16:37.129Z,3.58
2023-04-18T17:19:03.888Z,3.40
2023-04-18T17:21:31.838Z,3.67
2023-04-18T17:24:01.764Z,3.78
2023-04-18T17:26:28.525Z,3.60
2023-04-18T17:28:55.268Z,3.35
2023-04-18T17:31:22.272Z,3.50
2023-04-18T17:33:51.702Z,3.30
2023-04-18T17:36:18.441Z,3.50
2023-04-18T17:38:48.891Z,3.30
2023-04-18T17:41:17.573Z,3.13
2023-04-18T17:43:44.926Z,3.53
2023-04-18T17:46:12.109Z,3.22
2023-04-18T17:48:38.844Z,3.55
2023-04-18T17:51:05.554Z,3.17
2023-04-18T17:53:32.584Z,3.35
2023-04-18T17:55:59.471Z,3.25
2023-04-18T17:58:26.970Z,3.20
2023-04-18T18:00:53.886Z,3.40
2023-04-18T18:03:20.804Z,3.03
2023-04-18T18:05:49.199Z,3.10
2023-04-18T18:08:15.982Z,2.95
2023-04-18T18:10:42.971Z,3.10
2023-04-18T18:13:09.781Z,2.97
2023-04-18T18:15:36.411Z,3.35
2023-04-18T18:18:03.158Z,2.90
2023-04-18T18:20:30.800Z,3.00
2023-04-18T18:22:59.776Z,2.50
2023-04-18T18:25:27.428Z,2.95
2023-04-18T18:27:54.624Z,2.97
2023-04-18T18:30:21.484Z,2.90
2023-04-18T18:32:48.387Z,2.75
2023-04-18T18:35:15.155Z,2.63
2023-04-18T18:37:42.062Z,2.90
2023-04-18T18:40:09.370Z,2.97
2023-04-18T18:42:36.792Z,2.53
2023-04-18T18:45:04.459Z,3.00
2023-04-18T18:47:31.165Z,2.60
2023-04-18T18:49:58.037Z,2.85
2023-04-18T18:52:25.199Z,2.60
2023-04-18T18:54:52.620Z,2.70
2023-04-18T18:57:19.304Z,2.83
2023-04-18T18:59:46.126Z,2.95
2023-04-18T19:02:12.944Z,3.00
2023-04-18T19:04:39.877Z,2.70
2023-04-18T19:07:07.275Z,2.78
2023-04-18T19:09:34.291Z,3.22
2023-04-18T19:12:01.236Z,2.63
2023-04-18T19:14:27.921Z,3.08
2023-04-18T19:16:55.820Z,2.65
2023-04-18T19:19:22.554Z,2.70
2023-04-18T19:21:50.073Z,2.67
2023-04-18T19:24:18.709Z,2.40
2023-04-18T19:26:45.438Z,2.90
2023-04-18T19:29:14.329Z,2.78
2023-04-18T19:31:43.578Z,2.42
2023-04-18T19:34:10.921Z,2.80
2023-04-18T19:36:37.795Z,2.63
2023-04-18T19:39:04.489Z,2.45
2023-04-18T19:41:31.222Z,2.58
2023-04-18T19:43:57.889Z,2.70
2023-04-18T19:46:24.677Z,2.60
2023-04-18T19:48:51.488Z,2.30
2023-04-18T19:51:18.201Z,2.90
2023-04-18T19:53:44.928Z,2.40
2023-04-18T19:56:13.678Z,2.50
2023-04-18T19:58:45.353Z,2.28
2023-04-18T20:01:13.288Z,2.42
2023-04-18T20:03:40.735Z,2.47
2023-04-18T20:06:08.221Z,2.92
2023-04-18T20:08:36.711Z,2.85
2023-04-18T20:11:06.933Z,2.40
2023-04-18T20:13:34.677Z,2.65
2023-04-18T20:16:01.440Z,2.47
2023-04-18T20:18:30.337Z,2.58
2023-04-18T20:20:57.066Z,2.63
2023-04-18T20:23:23.904Z,2.75
2023-04-18T20:25:50.883Z,2.25
2023-04-18T20:28:17.795Z,2.70
2023-04-18T20:30:45.672Z,2.40
2023-04-18T20:33:12.765Z,2.33
2023-04-18T20:35:40.508Z,2.45
2023-04-18T20:38:08.935Z,2.45
2023-04-18T20:40:36.075Z,2.58
2023-04-18T20:43:03.201Z,1.95
2023-04-18T20:45:34.648Z,2.42
2023-04-18T20:48:02.055Z,2.30
2023-04-18T20:50:28.948Z,2.55
2023-04-18T20:52:55.772Z,2.53
2023-04-18T20:55:22.624Z,2.63
2023-04-18T20:57:49.274Z,2.25
2023-04-18T21:00:16.159Z,2.50
2023-04-18T21:02:44.680Z,2.22
2023-04-18T21:05:11.435Z,2.20
2023-04-18T21:07:38.358Z,2.25
2023-04-18T21:10:05.661Z,2.47
2023-04-18T21:12:32.353Z,2.20
2023-04-18T21:14:59.042Z,2.50
2023-04-18T21:17:25.965Z,2.17
2023-04-18T21:19:52.817Z,2.22
2023-04-18T21:22:19.781Z,2.50
2023-04-18T21:24:46.975Z,2.45
2023-04-18T21:27:15.817Z,2.20
2023-04-18T21:29:42.564Z,2.60
2023-04-18T21:32:09.348Z,2.47
2023-04-18T21:34:35.990Z,2.45
2023-04-18T21:37:02.763Z,2.15
2023-04-18T21:39:29.547Z,2.30
2023-04-18T21:41:57.175Z,2.40
2023-04-18T21:44:23.883Z,2.55
2023-04-18T21:46:50.884Z,2.33
2023-04-18T21:49:17.627Z,2.38
2023-04-18T21:51:44.939Z,2.25
2023-04-18T21:54:11.789Z,2.60
2023-04-18T21:56:38.720Z,3.75
2023-04-18T21:59:05.461Z,1.98
2023-04-18T22:01:34.561Z,2.25
2023-04-18T22:04:02.056Z,2.13
2023-04-18T22:06:29.797Z,2.35
2023-04-18T22:08:56.542Z,2.13
2023-04-18T22:11:23.664Z,2.40
2023-04-18T22:13:53.997Z,2.35
2023-04-18T22:16:24.651Z,2.35
2023-04-18T22:18:51.897Z,2.30
2023-04-18T22:21:18.775Z,2.38
2023-04-18T22:23:45.635Z,2.78
2023-04-18T22:26:12.481Z,2.13
2023-04-18T22:28:39.173Z,2.20
2023-04-18T22:31:06.015Z,2.45
2023-04-18T22:33:32.753Z,2.20
2023-04-18T22:35:59.516Z,2.15
2023-04-18T22:38:26.203Z,2.20
2023-04-18T22:40:53.040Z,2.40
2023-04-18T22:43:23.604Z,2.30
2023-04-18T22:45:51.015Z,2.40
2023-04-18T22:48:17.980Z,2.20
2023-04-18T22:50:44.760Z,2.17
2023-04-18T22:53:11.625Z,1.92
2023-04-18T22:55:42.799Z,2.15
2023-04-18T22:58:10.519Z,2.28
2023-04-18T23:00:37.655Z,2.40
2023-04-18T23:03:05.081Z,2.20
2023-04-18T23:05:32.148Z,2.00
2023-04-18T23:08:00.333Z,2.30
2023-04-18T23:10:27.462Z,2.25
2023-04-18T23:12:54.199Z,2.30
2023-04-18T23:15:22.832Z,2.10
2023-04-18T23:17:52.224Z,2.17
2023-04-18T23:20:19.736Z,2.30
2023-04-18T23:22:47.540Z,2.20
2023-04-18T23:25:14.232Z,2.15
2023-04-18T23:27:41.038Z,2.22
2023-04-18T23:30:08.335Z,2.10
2023-04-18T23:32:35.084Z,2.03
2023-04-18T23:35:04.271Z,2.20
2023-04-18T23:37:31.534Z,2.08
2023-04-18T23:39:59.854Z,2.28
2023-04-18T23:42:26.654Z,2.30
2023-04-18T23:44:54.415Z,2.30
2023-04-18T23:47:21.825Z,2.25
2023-04-18T23:49:48.604Z,2.10
2023-04-18T23:52:15.451Z,2.15
2023-04-18T23:54:42.180Z,1.95
2023-04-18T23:57:08.992Z,2.28
2023-04-18T23:59:35.706Z,2.30
